• Join FlightAware (Why Join?)
  • Login
  • US Flag 
04:14AM EDT


 

Airport Tracker/Info


-or-


 

Live Flight TrackerFlight Track Log ✈ SKW5619 ✈ 12-Jun-2013 ✈ KDEN - KHLN

Flight Track Log - Related Links

Times and Time Zones

All times are in EDT time to prevent confusion due to time zone crossing. See the SKW5619 flight status page for this flight to view local times or setup timezone preferences in your user account.

Time Position Orientation Groundspeed Altitude Reporting Facility
EDT Latitude Longitude Course Direction KTS MPH feet Rate Location/Type
09:31PM 40.1326 -104.9294 324° Northwest  Level Estimated
09:32PM 40.2228 -105.0153 324° Northwest  Level Estimated
09:33PM 40.3130 -105.1013 324° Northwest  Level Estimated
09:34PM 40.4030 -105.1877 324° Northwest  Level Estimated
09:35PM 40.4930 -105.2742 324° Northwest  Level Estimated
09:36PM 40.5830 -105.3610 324° Northwest  Level Estimated
09:37PM 40.6729 -105.4480 324° Northwest  Level Estimated
09:38PM 40.7627 -105.5353 324° Northwest  Level Estimated
09:39PM 40.8524 -105.6227 324° Northwest  Level Estimated
09:40PM 40.9421 -105.7105 324° Northwest  Level Estimated
09:41PM 41.0317 -105.7984 323° Northwest  Level Estimated
09:42PM 41.1213 -105.8866 323° Northwest  Level Estimated
09:43PM 41.2107 -105.9751 323° Northwest  Level Estimated
09:44PM 41.3001 -106.0638 323° Northwest  Level Estimated
09:45PM 41.3895 -106.1527 323° Northwest  Level Estimated
09:46PM 41.4787 -106.2419 323° Northwest  Level Estimated
09:47PM 41.5680 -106.3313 323° Northwest  Level Estimated
09:48PM 41.6571 -106.4210 323° Northwest  Level Estimated
09:49PM 41.7461 -106.5109 323° Northwest  Level Estimated
09:50PM 41.8351 -106.6010 323° Northwest  Level Estimated
09:51PM 41.9240 -106.6915 323° Northwest  Level Estimated
09:52PM 42.0129 -106.7821 323° Northwest  Level Estimated
09:53PM 42.1017 -106.8730 323° Northwest  Level Estimated
09:54PM 42.1904 -106.9642 323° Northwest  Level Estimated
09:55PM 42.2790 -107.0557 323° Northwest  Level Estimated
09:56PM 42.3676 -107.1473 323° Northwest  Level Estimated
09:57PM 42.4561 -107.2393 323° Northwest  Level Estimated
09:58PM 42.5445 -107.3315 322° Northwest  Level Estimated
09:59PM 42.6328 -107.4240 322° Northwest  Level Estimated
10:00PM 42.7211 -107.5167 322° Northwest  Level Estimated
10:01PM 42.8093 -107.6097 322° Northwest  Level Estimated
10:02PM 42.8974 -107.7030 322° Northwest  Level Estimated
10:03PM 42.9855 -107.7965 322° Northwest  Level Estimated
10:04PM 43.0734 -107.8903 322° Northwest  Level Estimated
10:05PM 43.1613 -107.9844 322° Northwest  Level Estimated
10:06PM 43.2491 -108.0787 322° Northwest  Level Estimated
10:07PM 43.3368 -108.1733 322° Northwest  Level Estimated
10:08PM 43.4245 -108.2682 322° Northwest  Level Estimated
10:09PM 43.5121 -108.3634 322° Northwest  Level Estimated
10:10PM 43.5996 -108.4588 322° Northwest  Level Estimated
10:11PM 43.6870 -108.5545 322° Northwest  Level Estimated
10:12PM 43.7743 -108.6505 322° Northwest  Level Estimated
10:13PM 43.8616 -108.7468 322° Northwest  Level Estimated
10:14PM 43.9488 -108.8433 321° Northwest  Level Estimated
10:15PM 44.0359 -108.9402 321° Northwest  Level Estimated
10:16PM 44.1229 -109.0373 321° Northwest  Level Estimated
10:17PM 44.2098 -109.1347 321° Northwest  Level Estimated
10:18PM 44.2966 -109.2324 321° Northwest  Level Estimated
10:19PM 44.3834 -109.3304 321° Northwest  Level Estimated
10:20PM 44.4701 -109.4287 321° Northwest  Level Estimated
10:21PM 44.5567 -109.5272 321° Northwest  Level Estimated
10:22PM 44.6432 -109.6261 321° Northwest  Level Estimated
10:23PM 44.7296 -109.7253 321° Northwest  Level Estimated
10:24PM 44.8159 -109.8247 321° Northwest  Level Estimated
10:25PM 44.9022 -109.9245 321° Northwest  Level Estimated
10:26PM 44.9884 -110.0245 321° Northwest  Level Estimated
10:27PM 45.0744 -110.1249 321° Northwest  Level Estimated
10:28PM 45.1604 -110.2255 320° Northwest  Level Estimated
10:29PM 45.2463 -110.3265 320° Northwest  Level Estimated
10:30PM 45.3321 -110.4278 320° Northwest  Level Estimated
10:31PM 45.4179 -110.5293 320° Northwest  Level Estimated
10:32PM 45.5035 -110.6312 320° Northwest  Level Estimated
10:33PM 45.5890 -110.7334 320° Northwest  Level Estimated
10:34PM 45.6745 -110.8359 320° Northwest  Level Estimated
10:35PM 45.7598 -110.9387 320° Northwest  Level Estimated
10:36PM 45.8451 -111.0419 320° Northwest  Level Estimated
10:37PM 45.9303 -111.1453 320° Northwest  Level Estimated
10:38PM 46.0154 -111.2491 320° Northwest  Level Estimated
10:39PM 46.1003 -111.3532 320° Northwest  Level Estimated
10:40PM 46.1852 -111.4576 320° Northwest  Level Estimated
10:41PM 46.2700 -111.5623 320° Northwest  Level Estimated
10:42PM 46.3547 -111.6674 319° Northwest  Level Estimated
10:43PM 46.4393 -111.7728 319° Northwest  Level Estimated
10:44PM 46.5238 -111.8785 319° Northwest  Level Estimated
10:45PM 46.6068 -111.9827 319° Northwest  Level Estimated
10:46PM 46.6068 -111.9827 180° South  Level Estimated
10:47PM 46.6068 -111.9827 180° South  Level Estimated
10:48PM 46.6068 -111.9827 180° South  Level Estimated
10:49PM 46.6068 -111.9827 180° South  Level Estimated
10:50PM 46.6068 -111.9827 180° South  Level Estimated
10:51PM 46.6068 -111.9827 180° South  Level Estimated
10:52PM 46.6068 -111.9827 180° South  Level Estimated
10:53PM 46.6068 -111.9827 180° South  Level Estimated
10:54PM 46.6068 -111.9827 180° South  Level Estimated
10:55PM 46.6068 -111.9827 180° South  Level Estimated
10:56PM 46.6068 -111.9827 180° South  Level Estimated
10:57PM 46.6068 -111.9827 180° South  Level Estimated
10:58PM 46.6068 -111.9827 180° South  Level Estimated